createdAt,value
2024-01-19T08:43:37.990Z,43.50
2024-01-19T08:44:38.757Z,44.00
2024-01-19T08:46:15.063Z,40.10
2024-01-19T08:47:15.805Z,49.80
2024-01-19T08:48:16.638Z,45.90
2024-01-19T08:49:17.422Z,42.00
2024-01-19T08:50:18.198Z,44.60
2024-01-19T08:51:18.972Z,43.60
2024-01-19T08:52:19.736Z,38.20
2024-01-19T08:53:20.491Z,41.30
2024-01-19T08:54:21.306Z,43.60
2024-01-19T08:55:22.073Z,41.90
2024-01-19T08:56:22.832Z,42.80
2024-01-19T08:57:23.592Z,37.20
2024-01-19T08:58:24.333Z,40.10
2024-01-19T08:59:25.127Z,48.60
2024-01-19T09:00:25.901Z,43.60
2024-01-19T09:01:26.650Z,42.30
2024-01-19T09:02:27.441Z,42.30
2024-01-19T09:03:28.280Z,44.40
2024-01-19T09:04:29.124Z,46.40
2024-01-19T09:05:30.137Z,41.00
2024-01-19T09:06:31.137Z,43.70
2024-01-19T09:07:31.689Z,44.60
2024-01-19T09:08:32.485Z,42.80
2024-01-19T09:09:33.248Z,44.50
2024-01-19T09:10:34.004Z,47.00
2024-01-19T09:11:34.814Z,43.40
2024-01-19T09:12:35.539Z,44.10
2024-01-19T09:13:36.298Z,41.30
2024-01-19T09:14:37.135Z,41.90
2024-01-19T09:15:37.918Z,41.40
2024-01-19T09:16:38.668Z,36.90
2024-01-19T09:17:39.503Z,40.80
2024-01-19T09:18:40.460Z,38.70
2024-01-19T09:19:40.831Z,37.40
2024-01-19T09:20:41.626Z,39.80
2024-01-19T09:21:42.330Z,39.10
2024-01-19T09:22:43.086Z,41.50
2024-01-19T09:23:43.922Z,40.10
2024-01-19T09:24:46.380Z,41.50
2024-01-19T09:25:45.280Z,32.00
2024-01-19T09:26:46.096Z,37.00
2024-01-19T09:27:46.841Z,40.20
2024-01-19T09:28:47.628Z,38.30
2024-01-19T09:29:48.399Z,37.20
2024-01-19T09:30:49.139Z,41.30
2024-01-19T09:31:49.956Z,36.50
2024-01-19T09:32:50.761Z,35.40
2024-01-19T09:33:51.689Z,35.20
2024-01-19T09:34:52.499Z,29.60
2024-01-19T09:35:55.100Z,32.10
2024-01-19T09:36:53.782Z,36.30
2024-01-19T09:37:54.554Z,35.30
2024-01-19T09:38:55.311Z,35.70
2024-01-19T09:39:56.172Z,31.90
2024-01-19T09:40:56.970Z,30.90
2024-01-19T09:41:57.810Z,34.80
2024-01-19T09:42:58.554Z,39.80
2024-01-19T09:43:59.306Z,40.20
2024-01-19T09:45:00.150Z,33.70
2024-01-19T09:46:00.943Z,36.30
2024-01-19T09:47:01.735Z,35.20
2024-01-19T09:48:02.538Z,32.60
2024-01-19T09:49:03.388Z,30.50
2024-01-19T09:50:04.141Z,33.50
2024-01-19T09:51:04.954Z,34.30
2024-01-19T09:52:05.718Z,31.30
2024-01-19T09:53:06.482Z,28.50
2024-01-19T09:54:07.206Z,34.90
2024-01-19T09:55:07.977Z,34.60
2024-01-19T09:56:08.741Z,35.50
2024-01-19T09:57:09.520Z,34.00
2024-01-19T09:58:10.237Z,32.70
2024-01-19T09:59:10.987Z,35.30
2024-01-19T10:00:11.745Z,45.40
2024-01-19T10:01:12.543Z,34.90
2024-01-19T10:02:13.320Z,29.00
2024-01-19T10:03:14.113Z,33.40
2024-01-19T10:04:14.906Z,28.50
2024-01-19T10:05:15.726Z,32.10
2024-01-19T10:06:16.691Z,29.20
2024-01-19T10:07:17.468Z,32.70
2024-01-19T10:08:18.225Z,30.40
2024-01-19T10:09:18.990Z,32.50
2024-01-19T10:10:19.760Z,39.10
2024-01-19T10:11:20.499Z,30.00
2024-01-19T10:12:21.279Z,31.90
2024-01-19T10:13:22.000Z,30.40
2024-01-19T10:14:22.798Z,31.70
2024-01-19T10:15:23.561Z,35.80
2024-01-19T10:16:24.315Z,32.80
2024-01-19T10:17:25.227Z,29.70
2024-01-19T10:18:26.125Z,33.40
2024-01-19T10:19:26.963Z,33.00
2024-01-19T10:20:27.729Z,33.90
2024-01-19T10:21:28.480Z,34.10
2024-01-19T10:22:29.230Z,28.70
2024-01-19T10:23:30.014Z,28.80
2024-01-19T10:24:30.760Z,27.90
2024-01-19T10:25:31.566Z,36.40
2024-01-19T10:26:32.333Z,36.70
2024-01-19T10:27:33.076Z,29.10
2024-01-19T10:28:33.830Z,30.70
2024-01-19T10:29:34.658Z,31.20
2024-01-19T10:30:35.371Z,35.40
2024-01-19T10:31:36.129Z,32.60
2024-01-19T10:32:36.935Z,32.50
2024-01-19T10:33:37.772Z,31.90
2024-01-19T10:34:38.639Z,30.30
2024-01-19T10:35:41.599Z,32.80
2024-01-19T10:36:40.206Z,37.10
2024-01-19T10:37:40.953Z,33.10
2024-01-19T10:38:41.757Z,29.30
2024-01-19T10:39:42.496Z,40.20
2024-01-19T10:40:43.255Z,30.60
2024-01-19T10:41:44.029Z,29.10
2024-01-19T10:42:44.816Z,37.10
2024-01-19T10:43:45.572Z,31.40
2024-01-19T10:44:46.328Z,33.40
2024-01-19T10:45:47.083Z,28.70
2024-01-19T10:46:47.837Z,30.40
2024-01-19T10:47:48.696Z,30.00
2024-01-19T10:48:49.533Z,29.60
2024-01-19T10:49:50.296Z,27.20
2024-01-19T10:50:51.084Z,48.70
2024-01-19T10:51:51.853Z,33.50
2024-01-19T10:52:52.660Z,25.10
2024-01-19T10:53:53.578Z,26.70
2024-01-19T10:54:54.320Z,30.70
2024-01-19T10:55:55.075Z,23.00
2024-01-19T10:56:55.933Z,29.20
2024-01-19T10:57:57.676Z,29.10
2024-01-19T10:58:57.587Z,29.40
2024-01-19T10:59:58.362Z,29.10
2024-01-19T11:00:59.186Z,30.80
2024-01-19T11:02:00.058Z,36.40
2024-01-19T11:03:00.882Z,33.50
2024-01-19T11:04:01.721Z,27.10
2024-01-19T11:05:02.430Z,29.90
2024-01-19T11:06:03.275Z,35.00
2024-01-19T11:07:04.268Z,49.10
2024-01-19T11:08:04.630Z,41.40
2024-01-19T11:09:05.397Z,34.30
2024-01-19T11:10:06.140Z,33.00
2024-01-19T11:11:06.936Z,28.10
2024-01-19T11:12:07.710Z,28.10
2024-01-19T11:13:08.453Z,30.50
2024-01-19T11:14:09.204Z,27.60
2024-01-19T11:15:10.174Z,26.10
2024-01-19T11:16:10.987Z,29.30
2024-01-19T11:17:11.748Z,26.90
2024-01-19T11:18:12.584Z,27.50
2024-01-19T11:19:13.496Z,28.70
2024-01-19T11:20:14.389Z,32.90
2024-01-19T11:21:15.150Z,28.10
2024-01-19T11:22:15.875Z,25.00
2024-01-19T11:23:16.625Z,30.70
2024-01-19T11:24:17.393Z,29.20
2024-01-19T11:25:18.188Z,25.60
2024-01-19T11:26:18.954Z,28.50
2024-01-19T11:27:19.698Z,28.70
2024-01-19T11:28:20.485Z,27.70
2024-01-19T11:29:21.250Z,26.60
2024-01-19T11:30:22.032Z,27.80
2024-01-19T11:31:22.781Z,26.60
2024-01-19T11:32:23.530Z,39.70
2024-01-19T11:33:24.412Z,31.80
2024-01-19T11:34:25.293Z,28.50
2024-01-19T11:35:26.019Z,28.50
2024-01-19T11:36:26.764Z,27.50
2024-01-19T11:37:27.544Z,28.00
2024-01-19T11:38:28.348Z,24.20
2024-01-19T11:39:29.091Z,26.20
2024-01-19T11:40:29.834Z,24.90
2024-01-19T11:41:30.618Z,28.40
2024-01-19T11:42:31.337Z,32.10
2024-01-19T11:43:32.148Z,29.00
2024-01-19T11:44:32.898Z,27.60
2024-01-19T11:45:33.625Z,28.50
2024-01-19T11:46:34.389Z,29.40
2024-01-19T11:47:35.323Z,28.00
2024-01-19T11:48:35.788Z,27.10
2024-01-19T11:49:36.785Z,30.80
2024-01-19T11:50:37.213Z,23.20
2024-01-19T11:51:37.946Z,30.90
2024-01-19T11:52:38.854Z,27.00
2024-01-19T11:53:39.670Z,31.60
2024-01-19T11:54:40.394Z,33.20
2024-01-19T11:55:41.152Z,30.30
2024-01-19T11:56:41.920Z,28.20
2024-01-19T11:57:42.681Z,28.30
2024-01-19T11:58:43.473Z,34.50
2024-01-19T11:59:44.225Z,30.50
2024-01-19T12:00:44.978Z,32.80
2024-01-19T12:01:45.748Z,36.70
2024-01-19T12:02:46.568Z,30.20
2024-01-19T12:03:47.279Z,34.80
2024-01-19T12:04:48.091Z,28.40
2024-01-19T12:05:48.935Z,27.90
2024-01-19T12:06:49.834Z,28.10
2024-01-19T12:07:50.601Z,33.10
2024-01-19T12:08:51.351Z,28.50
2024-01-19T12:09:52.125Z,31.00
2024-01-19T12:10:52.869Z,37.60
2024-01-19T12:11:53.688Z,36.00
2024-01-19T12:12:54.439Z,24.70
2024-01-19T12:14:01.720Z,28.50
2024-01-19T12:14:56.830Z,32.90
2024-01-19T12:15:56.612Z,25.20
2024-01-19T12:16:57.394Z,27.90
2024-01-19T12:17:58.327Z,28.30
2024-01-19T12:18:59.080Z,27.50
2024-01-19T12:20:00.082Z,30.20
2024-01-19T12:21:00.393Z,23.70
2024-01-19T12:22:01.142Z,24.50
2024-01-19T12:23:02.000Z,26.80
2024-01-19T12:24:02.781Z,36.00
2024-01-19T12:25:03.560Z,39.30
2024-01-19T12:26:04.411Z,40.00
2024-01-19T12:27:05.230Z,31.50
2024-01-19T12:28:05.992Z,27.10
2024-01-19T12:29:06.883Z,28.40
2024-01-19T12:30:07.618Z,38.80
2024-01-19T12:31:08.400Z,30.70
2024-01-19T12:32:09.255Z,22.60
2024-01-19T12:33:10.051Z,38.60
2024-01-19T12:34:10.822Z,31.60
2024-01-19T12:35:11.661Z,97.90
2024-01-19T12:36:12.434Z,47.40
2024-01-19T12:37:13.202Z,25.10
2024-01-19T12:38:13.964Z,50.40
2024-01-19T12:39:14.705Z,32.20
2024-01-19T12:40:15.496Z,36.10
2024-01-19T12:41:16.265Z,29.10
2024-01-19T12:42:17.004Z,35.50
2024-01-19T12:43:17.750Z,25.40
2024-01-19T12:44:18.558Z,29.10
2024-01-19T12:45:19.454Z,33.20
2024-01-19T12:46:22.075Z,29.00
2024-01-19T12:47:21.074Z,26.90
2024-01-19T12:48:28.789Z,24.90
2024-01-19T12:49:23.470Z,24.40
2024-01-19T12:50:24.380Z,22.10
2024-01-19T12:51:23.929Z,29.20
2024-01-19T12:52:24.674Z,28.30
2024-01-19T12:53:25.438Z,24.70
2024-01-19T12:54:26.231Z,24.10
2024-01-19T12:55:27.064Z,27.20
2024-01-19T12:56:27.804Z,20.70
2024-01-19T12:57:28.557Z,25.00
2024-01-19T12:58:29.356Z,23.20
2024-01-19T12:59:30.113Z,22.20
2024-01-19T13:00:30.851Z,24.60
2024-01-19T13:01:31.664Z,23.90
2024-01-19T13:02:32.388Z,22.70
2024-01-19T13:03:33.265Z,23.80
2024-01-19T13:04:34.020Z,20.60
2024-01-19T13:05:34.823Z,20.90
2024-01-19T13:06:35.552Z,24.40
2024-01-19T13:07:36.347Z,20.70
2024-01-19T13:08:37.087Z,25.20
2024-01-19T13:09:37.838Z,21.70
2024-01-19T13:10:38.618Z,23.10
2024-01-19T13:11:39.345Z,24.20
2024-01-19T13:12:40.125Z,27.00
2024-01-19T13:13:40.945Z,23.70
2024-01-19T13:14:41.716Z,22.00
2024-01-19T13:15:42.437Z,18.70
2024-01-19T13:16:43.243Z,26.70
2024-01-19T13:17:44.074Z,23.70
2024-01-19T13:18:44.850Z,23.80
2024-01-19T13:19:45.636Z,20.30
2024-01-19T13:20:46.510Z,21.80
2024-01-19T13:21:47.253Z,20.60
2024-01-19T13:22:48.042Z,21.30
2024-01-19T13:23:48.756Z,22.10
2024-01-19T13:24:49.512Z,21.80
2024-01-19T13:25:50.303Z,18.00
2024-01-19T13:26:51.076Z,20.90
2024-01-19T13:27:51.823Z,22.00
2024-01-19T13:28:52.723Z,25.10
2024-01-19T13:29:53.556Z,21.60
2024-01-19T13:30:54.283Z,20.90
2024-01-19T13:31:55.071Z,22.40
2024-01-19T13:32:55.811Z,19.90
2024-01-19T13:33:56.570Z,20.60
2024-01-19T13:34:57.333Z,22.70
2024-01-19T13:35:58.079Z,22.40
2024-01-19T13:36:58.892Z,20.20
2024-01-19T13:37:59.674Z,18.50
2024-01-19T13:39:00.411Z,22.20
2024-01-19T13:40:01.180Z,20.30
2024-01-19T13:41:01.995Z,21.60
2024-01-19T13:42:02.753Z,23.90
2024-01-19T13:43:03.512Z,22.90
2024-01-19T13:44:04.322Z,17.00
2024-01-19T13:45:05.103Z,18.40
2024-01-19T13:46:05.833Z,21.80
2024-01-19T13:47:06.662Z,21.20
2024-01-19T13:48:07.386Z,19.80
2024-01-19T13:49:08.242Z,19.30
2024-01-19T13:50:09.182Z,17.30
2024-01-19T13:51:09.956Z,20.30
2024-01-19T13:52:10.698Z,17.90
2024-01-19T13:53:11.519Z,18.30
2024-01-19T13:54:12.265Z,18.70
2024-01-19T13:55:13.027Z,20.60
2024-01-19T13:56:13.865Z,22.40
2024-01-19T13:57:14.624Z,18.60
2024-01-19T13:58:15.384Z,17.40
2024-01-19T13:59:16.191Z,16.70
2024-01-19T14:00:16.974Z,23.80
2024-01-19T14:01:17.713Z,18.00
2024-01-19T14:02:18.491Z,20.30
2024-01-19T14:03:19.346Z,17.50
2024-01-19T14:04:20.139Z,19.00
2024-01-19T14:05:21.012Z,17.40
2024-01-19T14:06:21.858Z,19.40
2024-01-19T14:07:22.580Z,19.60
2024-01-19T14:08:23.410Z,23.20
2024-01-19T14:09:24.154Z,22.00
2024-01-19T14:10:24.905Z,19.60
2024-01-19T14:11:25.668Z,19.50
2024-01-19T14:12:26.413Z,20.90
2024-01-19T14:13:27.312Z,20.40
2024-01-19T14:14:28.053Z,18.70
2024-01-19T14:15:33.845Z,19.40
2024-01-19T14:16:30.477Z,19.40
2024-01-19T14:17:30.242Z,18.40
2024-01-19T14:18:32.821Z,17.70
2024-01-19T14:19:31.966Z,21.60
2024-01-19T14:20:32.765Z,22.30
2024-01-19T14:21:33.494Z,20.50
2024-01-19T14:22:34.386Z,22.70
2024-01-19T14:23:35.118Z,21.90
2024-01-19T14:24:35.858Z,19.40
2024-01-19T14:25:36.687Z,20.00
2024-01-19T14:26:37.430Z,20.40
2024-01-19T14:27:38.220Z,17.00
2024-01-19T14:28:38.990Z,17.40
2024-01-19T14:29:39.747Z,16.60
2024-01-19T14:30:40.493Z,19.90
2024-01-19T14:31:41.323Z,19.60
2024-01-19T14:32:42.082Z,17.60
2024-01-19T14:33:42.900Z,20.10
2024-01-19T14:34:50.318Z,17.00
2024-01-19T14:35:45.273Z,18.80
2024-01-19T14:36:45.015Z,19.40
2024-01-19T14:37:45.813Z,23.40
2024-01-19T14:38:46.580Z,19.60
2024-01-19T14:39:47.288Z,17.30
2024-01-19T14:40:48.184Z,20.10
2024-01-19T14:41:48.944Z,19.20
2024-01-19T14:42:50.838Z,19.10
2024-01-19T14:43:50.639Z,19.60
2024-01-19T14:44:51.380Z,18.10
2024-01-19T14:45:52.184Z,17.40
2024-01-19T14:46:52.925Z,20.20
2024-01-19T14:47:53.826Z,17.80
2024-01-19T14:48:54.554Z,22.10
2024-01-19T14:49:55.358Z,20.10
2024-01-19T14:50:56.359Z,22.00
2024-01-19T14:51:57.069Z,18.30
2024-01-19T14:52:57.911Z,19.50
2024-01-19T14:53:58.507Z,21.60
2024-01-19T14:54:59.204Z,24.80
2024-01-19T14:56:01.602Z,20.50
2024-01-19T14:57:00.627Z,19.40
2024-01-19T14:58:01.350Z,20.40
2024-01-19T14:59:02.235Z,24.10
2024-01-19T15:00:03.124Z,25.60
2024-01-19T15:01:03.938Z,30.50
2024-01-19T15:02:04.723Z,22.20
2024-01-19T15:03:05.492Z,21.90
2024-01-19T15:04:06.285Z,17.00
2024-01-19T15:05:07.048Z,20.60
2024-01-19T15:06:07.792Z,23.10
2024-01-19T15:07:08.665Z,20.00
2024-01-19T15:08:09.447Z,23.20
2024-01-19T15:09:10.234Z,16.30
2024-01-19T15:10:10.973Z,19.60
2024-01-19T15:11:11.786Z,18.60
2024-01-19T15:12:12.532Z,23.10
2024-01-19T15:13:13.284Z,36.90
2024-01-19T15:14:14.315Z,24.60
2024-01-19T15:15:14.645Z,22.10
2024-01-19T15:16:15.421Z,53.90
2024-01-19T15:17:16.204Z,61.80
2024-01-19T15:18:16.967Z,28.80
2024-01-19T15:19:17.792Z,31.30
2024-01-19T15:20:18.663Z,24.80
2024-01-19T15:21:19.445Z,22.10
2024-01-19T15:22:20.200Z,18.20
2024-01-19T15:23:20.976Z,21.50
2024-01-19T15:24:21.728Z,17.70
2024-01-19T15:25:22.480Z,22.20
2024-01-19T15:26:23.243Z,18.80
2024-01-19T15:27:24.008Z,20.70
2024-01-19T15:28:24.787Z,20.10
2024-01-19T15:29:25.539Z,19.30
2024-01-19T15:30:33.428Z,17.10
2024-01-19T15:31:27.990Z,24.00
2024-01-19T15:32:27.902Z,30.40
2024-01-19T15:33:28.270Z,17.30
2024-01-19T15:34:29.145Z,21.40
2024-01-19T15:35:29.888Z,20.80
2024-01-19T15:36:30.644Z,19.40
2024-01-19T15:37:31.422Z,25.40
2024-01-19T15:38:32.175Z,19.90
2024-01-19T15:39:32.924Z,19.70
2024-01-19T15:40:33.700Z,19.90
2024-01-19T15:41:34.432Z,16.30
2024-01-19T15:42:35.211Z,20.30
2024-01-19T15:43:35.979Z,18.20
2024-01-19T15:44:36.720Z,23.10
2024-01-19T15:45:37.480Z,19.50
2024-01-19T15:46:38.346Z,23.60
2024-01-19T15:47:39.196Z,18.70
2024-01-19T15:48:45.447Z,18.80
2024-01-19T15:49:41.891Z,19.00
2024-01-19T15:50:41.224Z,31.10
2024-01-19T15:51:42.074Z,22.00
2024-01-19T15:52:42.829Z,22.60
2024-01-19T15:53:43.586Z,23.20
2024-01-19T15:54:44.303Z,25.80
2024-01-19T15:55:45.104Z,28.50
2024-01-19T15:56:45.864Z,21.80
2024-01-19T15:57:46.604Z,19.40
2024-01-19T15:58:47.385Z,27.50
2024-01-19T15:59:48.115Z,22.30
2024-01-19T16:00:48.895Z,22.40
2024-01-19T16:01:49.737Z,25.20
2024-01-19T16:02:50.434Z,25.00
2024-01-19T16:03:51.270Z,20.20
2024-01-19T16:04:52.031Z,19.50
2024-01-19T16:05:52.810Z,19.00
2024-01-19T16:06:53.531Z,16.10
2024-01-19T16:07:54.348Z,22.00
2024-01-19T16:08:55.117Z,17.60
2024-01-19T16:09:55.875Z,18.90
2024-01-19T16:10:56.692Z,23.40
2024-01-19T16:11:57.411Z,24.80
2024-01-19T16:12:58.171Z,20.50
2024-01-19T16:13:58.986Z,21.40
2024-01-19T16:14:59.750Z,24.10
2024-01-19T16:16:00.494Z,24.20
2024-01-19T16:17:01.296Z,21.80
2024-01-19T16:18:02.252Z,25.80
2024-01-19T16:19:03.090Z,25.70
2024-01-19T16:20:03.903Z,28.50
2024-01-19T16:21:04.650Z,23.10
2024-01-19T16:22:05.402Z,26.20
2024-01-19T16:23:06.172Z,25.40
2024-01-19T16:24:07.020Z,26.30
2024-01-19T16:25:08.213Z,27.80
2024-01-19T16:26:08.632Z,24.80
2024-01-19T16:27:09.388Z,27.40
2024-01-19T16:28:10.141Z,24.00
2024-01-19T16:29:11.020Z,31.40
2024-01-19T16:30:11.792Z,25.10
2024-01-19T16:31:12.567Z,32.70
2024-01-19T16:32:13.457Z,39.20
2024-01-19T16:33:14.236Z,36.90
2024-01-19T16:34:15.006Z,25.00
2024-01-19T16:35:24.229Z,32.10
2024-01-19T16:36:17.476Z,22.50
2024-01-19T16:37:17.217Z,22.80
2024-01-19T16:38:18.025Z,21.70
2024-01-19T16:39:18.780Z,26.00
2024-01-19T16:40:19.520Z,25.20
2024-01-19T16:41:20.279Z,20.30
2024-01-19T16:42:21.065Z,22.40
2024-01-19T16:43:21.849Z,22.70
2024-01-19T16:44:22.720Z,23.10
2024-01-19T16:45:23.428Z,18.90
2024-01-19T16:46:24.185Z,18.30
2024-01-19T16:47:24.986Z,19.10
2024-01-19T16:48:26.086Z,17.90
2024-01-19T16:49:26.613Z,18.00
2024-01-19T16:50:27.385Z,22.10
2024-01-19T16:51:28.119Z,22.00
2024-01-19T16:52:28.951Z,23.40
2024-01-19T16:53:29.697Z,22.10
2024-01-19T16:54:30.452Z,27.60
2024-01-19T16:55:31.258Z,21.60
2024-01-19T16:56:34.801Z,29.00
2024-01-19T16:57:32.813Z,22.40
2024-01-19T16:58:33.602Z,24.60
2024-01-19T16:59:34.354Z,34.90
2024-01-19T17:00:35.101Z,49.70
2024-01-19T17:01:35.890Z,42.20
2024-01-19T17:02:36.671Z,77.50
2024-01-19T17:03:37.445Z,38.70
2024-01-19T17:04:38.289Z,44.70
2024-01-19T17:05:39.078Z,44.60
2024-01-19T17:06:39.828Z,38.80
2024-01-19T17:07:40.637Z,34.20
2024-01-19T17:08:41.382Z,24.40
2024-01-19T17:09:42.124Z,29.50
2024-01-19T17:10:42.920Z,30.20
2024-01-19T17:11:43.653Z,27.40
2024-01-19T17:12:44.412Z,26.30
2024-01-19T17:13:45.184Z,26.40
2024-01-19T17:14:45.952Z,25.00
2024-01-19T17:15:46.748Z,26.80
2024-01-19T17:16:49.128Z,25.60
2024-01-19T17:17:48.204Z,31.50
2024-01-19T17:18:49.007Z,26.70
2024-01-19T17:19:49.818Z,22.40
2024-01-19T17:20:50.592Z,27.70
2024-01-19T17:21:51.357Z,29.90
2024-01-19T17:22:52.162Z,33.90
2024-01-19T17:23:56.531Z,33.40
2024-01-19T17:24:53.723Z,38.30
2024-01-19T17:25:54.637Z,39.50
2024-01-19T17:26:55.369Z,33.50
2024-01-19T17:27:56.329Z,31.30
2024-01-19T17:28:57.173Z,27.10
2024-01-19T17:29:57.998Z,32.00
2024-01-19T17:30:58.890Z,49.20
2024-01-19T17:31:59.429Z,49.10
2024-01-19T17:33:00.380Z,54.40
2024-01-19T17:34:08.109Z,51.00
2024-01-19T17:35:02.751Z,44.00
2024-01-19T17:36:02.094Z,39.80
2024-01-19T17:37:02.881Z,30.80
2024-01-19T17:38:03.686Z,32.00
2024-01-19T17:39:04.528Z,30.30
2024-01-19T17:40:04.954Z,31.90
2024-01-19T17:41:05.976Z,34.50
2024-01-19T17:42:06.738Z,37.60
2024-01-19T17:43:07.540Z,30.70
2024-01-19T17:44:08.438Z,38.00
2024-01-19T17:45:16.313Z,33.50
2024-01-19T17:46:10.851Z,33.00
2024-01-19T17:47:10.603Z,31.80
2024-01-19T17:48:11.440Z,28.60
2024-01-19T17:49:12.230Z,29.10
2024-01-19T17:50:13.019Z,31.00
2024-01-19T17:51:13.752Z,30.70
2024-01-19T17:52:14.492Z,33.40
2024-01-19T17:53:15.336Z,38.70
2024-01-19T17:54:16.054Z,40.00
2024-01-19T17:55:16.811Z,33.00
2024-01-19T17:56:17.603Z,31.40
2024-01-19T17:57:18.397Z,33.50
2024-01-19T17:58:19.174Z,31.90
2024-01-19T17:59:19.959Z,27.00
2024-01-19T18:00:20.677Z,28.60
2024-01-19T18:01:21.435Z,25.70
2024-01-19T18:02:22.307Z,22.60
2024-01-19T18:03:22.968Z,20.10
2024-01-19T18:04:23.688Z,25.80
2024-01-19T18:05:24.508Z,20.90
2024-01-19T18:06:25.486Z,22.60
2024-01-19T18:07:25.834Z,18.10
2024-01-19T18:08:26.583Z,21.00
2024-01-19T18:09:29.223Z,23.80
2024-01-19T18:10:28.335Z,24.50
2024-01-19T18:11:29.130Z,18.70
2024-01-19T18:12:29.971Z,20.10
2024-01-19T18:13:30.948Z,19.70
2024-01-19T18:14:31.396Z,18.90
2024-01-19T18:15:32.359Z,16.90
2024-01-19T18:16:33.198Z,22.60
2024-01-19T18:17:34.028Z,19.40
2024-01-19T18:18:36.664Z,23.60
2024-01-19T18:19:35.622Z,17.40
2024-01-19T18:20:36.287Z,20.50
2024-01-19T18:21:37.177Z,18.70
2024-01-19T18:22:37.698Z,15.40
2024-01-19T18:23:38.467Z,15.90
2024-01-19T18:24:39.233Z,18.90
2024-01-19T18:25:40.153Z,19.70
2024-01-19T18:26:40.647Z,14.60
2024-01-19T18:27:41.476Z,13.50
2024-01-19T18:28:42.233Z,18.70
2024-01-19T18:29:43.029Z,14.90
2024-01-19T18:30:43.540Z,19.70
2024-01-19T18:31:44.416Z,18.60
2024-01-19T18:32:46.349Z,21.20
2024-01-19T18:33:46.164Z,16.40
2024-01-19T18:34:47.041Z,23.40
2024-01-19T18:35:47.846Z,18.20
2024-01-19T18:36:48.591Z,18.60
2024-01-19T18:37:49.376Z,22.00
2024-01-19T18:38:50.115Z,19.10
2024-01-19T18:39:50.896Z,19.80
2024-01-19T18:40:51.676Z,23.30
2024-01-19T18:41:52.394Z,22.50
2024-01-19T18:42:53.145Z,19.20
2024-01-19T18:43:53.950Z,17.20
2024-01-19T18:44:54.710Z,18.00
2024-01-19T18:45:55.461Z,19.60
2024-01-19T18:46:56.280Z,18.60
2024-01-19T18:47:57.104Z,17.60
2024-01-19T18:48:57.962Z,17.20
2024-01-19T18:49:58.488Z,16.80
2024-01-19T18:50:59.374Z,19.00
2024-01-19T18:52:00.366Z,20.00
2024-01-19T18:53:01.397Z,13.70
2024-01-19T18:54:01.958Z,16.30
2024-01-19T18:55:02.866Z,18.40
2024-01-19T18:56:03.810Z,16.00
2024-01-19T18:57:04.572Z,17.50
2024-01-19T18:58:07.422Z,17.80
2024-01-19T18:59:06.208Z,18.20
2024-01-19T19:00:07.094Z,15.50
2024-01-19T19:01:07.653Z,19.40
2024-01-19T19:02:08.255Z,17.80
2024-01-19T19:03:09.042Z,17.80
2024-01-19T19:04:10.104Z,17.10
2024-01-19T19:05:10.945Z,22.90
2024-01-19T19:06:11.699Z,19.60
2024-01-19T19:07:12.497Z,18.20
2024-01-19T19:08:13.489Z,17.60
2024-01-19T19:09:14.242Z,23.60
2024-01-19T19:10:15.205Z,13.20
2024-01-19T19:11:16.157Z,18.50
2024-01-19T19:12:16.996Z,17.40
2024-01-19T19:13:17.600Z,20.30
2024-01-19T19:14:21.542Z,17.30
2024-01-19T19:15:18.951Z,17.30
2024-01-19T19:16:30.190Z,24.40
2024-01-19T19:17:21.507Z,46.20
2024-01-19T19:18:21.391Z,25.80
2024-01-19T19:19:22.294Z,27.00
2024-01-19T19:20:23.218Z,20.00
2024-01-19T19:21:24.028Z,47.00
2024-01-19T19:22:24.793Z,31.40
2024-01-19T19:23:25.527Z,27.30
2024-01-19T19:24:26.280Z,21.70
2024-01-19T19:25:27.027Z,20.80
2024-01-19T19:26:27.859Z,20.00
2024-01-19T19:27:28.571Z,20.50
2024-01-19T19:28:29.322Z,19.20
2024-01-19T19:29:30.079Z,18.90
2024-01-19T19:30:30.854Z,19.20
2024-01-19T19:31:31.785Z,19.50
2024-01-19T19:32:32.719Z,18.60
2024-01-19T19:33:33.562Z,21.80
2024-01-19T19:34:34.350Z,25.30
2024-01-19T19:35:35.146Z,22.50
2024-01-19T19:36:35.898Z,27.00
2024-01-19T19:37:38.256Z,24.30
2024-01-19T19:38:37.188Z,27.20
2024-01-19T19:39:37.937Z,22.50
2024-01-19T19:40:38.796Z,24.30
2024-01-19T19:41:39.521Z,32.50
2024-01-19T19:42:40.264Z,33.50
2024-01-19T19:43:41.084Z,30.80
2024-01-19T19:44:41.854Z,28.80
2024-01-19T19:45:42.324Z,47.80
2024-01-19T19:46:43.187Z,38.80
2024-01-19T19:47:43.643Z,31.30
2024-01-19T19:48:44.449Z,39.60
2024-01-19T19:49:45.278Z,40.80
2024-01-19T19:50:45.991Z,35.60
2024-01-19T19:51:46.753Z,26.30
2024-01-19T19:52:47.520Z,24.40
2024-01-19T19:53:48.270Z,26.50
2024-01-19T19:54:49.056Z,32.70
2024-01-19T19:55:49.846Z,41.00
2024-01-19T19:56:50.554Z,43.40
2024-01-19T19:57:51.305Z,35.90
2024-01-19T19:58:52.203Z,34.80
2024-01-19T19:59:52.936Z,24.60
2024-01-19T20:00:53.705Z,26.00
2024-01-19T20:01:54.473Z,24.20
2024-01-19T20:02:55.232Z,22.30
2024-01-19T20:03:56.017Z,20.70
2024-01-19T20:04:56.838Z,21.90
2024-01-19T20:05:57.539Z,22.60
2024-01-19T20:06:58.288Z,20.40
2024-01-19T20:07:59.125Z,18.70
2024-01-19T20:08:59.959Z,19.20
2024-01-19T20:10:00.957Z,22.70
2024-01-19T20:11:01.322Z,16.90
2024-01-19T20:12:01.826Z,16.10
2024-01-19T20:13:02.659Z,17.50
2024-01-19T20:14:03.219Z,18.40
2024-01-19T20:15:03.974Z,16.60
2024-01-19T20:16:04.768Z,20.20
2024-01-19T20:17:05.603Z,18.30
2024-01-19T20:18:06.451Z,21.70
2024-01-19T20:19:07.328Z,17.90
2024-01-19T20:20:08.197Z,18.00
2024-01-19T20:21:09.012Z,17.70
2024-01-19T20:22:09.837Z,18.40
2024-01-19T20:23:10.646Z,20.50
2024-01-19T20:24:11.420Z,19.70
2024-01-19T20:25:12.055Z,19.40
2024-01-19T20:26:12.788Z,20.10
2024-01-19T20:27:13.431Z,17.80
2024-01-19T20:28:14.234Z,14.60
2024-01-19T20:29:15.371Z,16.70
2024-01-19T20:30:15.697Z,21.90
2024-01-19T20:31:16.557Z,21.30
2024-01-19T20:32:17.400Z,21.70
2024-01-19T20:33:18.330Z,18.40
2024-01-19T20:34:18.757Z,18.90
2024-01-19T20:35:19.339Z,18.60
2024-01-19T20:36:19.861Z,23.00
2024-01-19T20:37:20.651Z,18.40
2024-01-19T20:38:21.491Z,17.30
2024-01-19T20:39:22.376Z,17.20
2024-01-19T20:40:23.154Z,16.00
2024-01-19T20:41:23.973Z,20.30
2024-01-19T20:42:24.722Z,21.40
2024-01-19T20:43:25.469Z,23.00
2024-01-19T20:44:26.225Z,22.00
2024-01-19T20:45:27.009Z,19.40
2024-01-19T20:46:27.764Z,19.80
2024-01-19T20:47:28.544Z,23.90
2024-01-19T20:48:29.353Z,21.60
2024-01-19T20:49:30.066Z,22.50
2024-01-19T20:50:30.870Z,22.50
2024-01-19T20:51:31.608Z,19.20
2024-01-19T20:52:32.377Z,18.50
2024-01-19T20:53:33.113Z,23.00
2024-01-19T20:54:33.900Z,23.70
2024-01-19T20:55:34.731Z,22.00
2024-01-19T20:56:35.449Z,20.90
2024-01-19T20:57:36.319Z,24.00
2024-01-19T20:58:37.308Z,25.90
2024-01-19T20:59:38.065Z,23.40
2024-01-19T21:00:38.595Z,26.70
2024-01-19T21:01:39.321Z,29.10
2024-01-19T21:02:40.092Z,30.00
2024-01-19T21:03:40.638Z,25.20
2024-01-19T21:04:42.344Z,29.50
2024-01-19T21:05:42.472Z,27.50
2024-01-19T21:06:42.984Z,24.30
2024-01-19T21:07:43.805Z,27.70
2024-01-19T21:08:44.659Z,25.90
2024-01-19T21:09:46.308Z,26.80
2024-01-19T21:10:46.502Z,25.70
2024-01-19T21:11:47.352Z,25.50
2024-01-19T21:12:48.181Z,27.30
2024-01-19T21:13:49.004Z,31.70
2024-01-19T21:14:49.620Z,28.90
2024-01-19T21:15:50.478Z,29.10
2024-01-19T21:16:51.332Z,24.10
2024-01-19T21:17:52.199Z,35.00
2024-01-19T21:18:53.096Z,25.60
2024-01-19T21:19:54.014Z,28.00
2024-01-19T21:20:57.464Z,32.50
2024-01-19T21:21:55.421Z,32.60
2024-01-19T21:22:56.233Z,27.10
2024-01-19T21:23:57.011Z,25.60
2024-01-19T21:24:57.761Z,28.90
2024-01-19T21:25:58.521Z,25.10
2024-01-19T21:26:59.281Z,24.30
2024-01-19T21:28:02.828Z,29.10
2024-01-19T21:29:00.846Z,28.50
2024-01-19T21:30:01.564Z,26.30
2024-01-19T21:31:02.320Z,32.40
2024-01-19T21:32:02.928Z,27.90
2024-01-19T21:33:03.702Z,27.60
2024-01-19T21:34:04.430Z,26.70
2024-01-19T21:35:05.365Z,30.10
2024-01-19T21:36:06.167Z,30.20
2024-01-19T21:37:07.056Z,30.50
2024-01-19T21:38:07.923Z,32.90
2024-01-19T21:39:08.709Z,33.90
2024-01-19T21:40:09.686Z,36.90
2024-01-19T21:41:10.392Z,33.90
2024-01-19T21:42:11.231Z,41.50
2024-01-19T21:43:11.988Z,42.60
2024-01-19T21:44:12.850Z,32.20
2024-01-19T21:45:13.385Z,38.90
2024-01-19T21:46:14.311Z,33.00